sensor_id;sensor_type;location;lat;lon;timestamp;P1;durP1;ratioP1;P2;durP2;ratioP2
69991;SDS011;57332;51.320;-0.580;2023-07-02T00:01:48;24.42;;;8.07;;
69991;SDS011;57332;51.320;-0.580;2023-07-02T00:04:15;25.75;;;8.57;;
69991;SDS011;57332;51.320;-0.580;2023-07-02T00:06:46;20.23;;;7.70;;
69991;SDS011;57332;51.320;-0.580;2023-07-02T00:09:14;22.88;;;7.30;;
69991;SDS011;57332;51.320;-0.580;2023-07-02T00:11:44;24.90;;;6.90;;
69991;SDS011;57332;51.320;-0.580;2023-07-02T00:14:14;25.15;;;7.88;;
69991;SDS011;57332;51.320;-0.580;2023-07-02T00:16:45;20.02;;;7.28;;
69991;SDS011;57332;51.320;-0.580;2023-07-02T00:19:15;24.20;;;6.88;;
69991;SDS011;57332;51.320;-0.580;2023-07-02T00:21:43;25.77;;;7.13;;
69991;SDS011;57332;51.320;-0.580;2023-07-02T00:24:10;18.88;;;6.28;;
69991;SDS011;57332;51.320;-0.580;2023-07-02T00:26:37;24.83;;;7.25;;
69991;SDS011;57332;51.320;-0.580;2023-07-02T00:29:04;24.77;;;7.50;;
69991;SDS011;57332;51.320;-0.580;2023-07-02T00:31:33;21.45;;;6.90;;
69991;SDS011;57332;51.320;-0.580;2023-07-02T00:34:00;25.33;;;6.97;;
69991;SDS011;57332;51.320;-0.580;2023-07-02T00:36:30;23.27;;;7.32;;
69991;SDS011;57332;51.320;-0.580;2023-07-02T00:38:57;21.60;;;7.65;;
69991;SDS011;57332;51.320;-0.580;2023-07-02T00:41:24;26.75;;;7.68;;
69991;SDS011;57332;51.320;-0.580;2023-07-02T00:43:51;23.77;;;7.50;;
69991;SDS011;57332;51.320;-0.580;2023-07-02T00:46:21;24.38;;;7.13;;
69991;SDS011;57332;51.320;-0.580;2023-07-02T00:48:49;18.73;;;6.90;;
69991;SDS011;57332;51.320;-0.580;2023-07-02T00:51:17;24.55;;;7.10;;
69991;SDS011;57332;51.320;-0.580;2023-07-02T00:53:45;20.45;;;6.80;;
69991;SDS011;57332;51.320;-0.580;2023-07-02T00:56:13;20.48;;;6.88;;
69991;SDS011;57332;51.320;-0.580;2023-07-02T00:58:40;21.80;;;6.32;;
69991;SDS011;57332;51.320;-0.580;2023-07-02T01:01:17;19.90;;;6.35;;
69991;SDS011;57332;51.320;-0.580;2023-07-02T01:06:24;22.08;;;7.13;;
69991;SDS011;57332;51.320;-0.580;2023-07-02T01:08:55;20.42;;;6.90;;
69991;SDS011;57332;51.320;-0.580;2023-07-02T01:14:03;15.52;;;6.53;;
69991;SDS011;57332;51.320;-0.580;2023-07-02T01:16:31;24.55;;;6.82;;
69991;SDS011;57332;51.320;-0.580;2023-07-02T01:19:01;24.45;;;6.70;;
69991;SDS011;57332;51.320;-0.580;2023-07-02T01:21:30;24.67;;;7.53;;
69991;SDS011;57332;51.320;-0.580;2023-07-02T01:23:59;18.10;;;6.70;;
69991;SDS011;57332;51.320;-0.580;2023-07-02T01:28:57;26.60;;;7.88;;
69991;SDS011;57332;51.320;-0.580;2023-07-02T01:31:24;20.77;;;6.97;;
69991;SDS011;57332;51.320;-0.580;2023-07-02T01:33:52;20.13;;;6.97;;
69991;SDS011;57332;51.320;-0.580;2023-07-02T01:36:19;23.00;;;6.85;;
69991;SDS011;57332;51.320;-0.580;2023-07-02T01:38:46;24.52;;;6.40;;
69991;SDS011;57332;51.320;-0.580;2023-07-02T01:41:13;20.20;;;6.90;;
69991;SDS011;57332;51.320;-0.580;2023-07-02T01:43:40;21.00;;;7.05;;
69991;SDS011;57332;51.320;-0.580;2023-07-02T01:46:07;19.35;;;7.05;;
69991;SDS011;57332;51.320;-0.580;2023-07-02T01:48:33;22.40;;;6.80;;
69991;SDS011;57332;51.320;-0.580;2023-07-02T01:51:00;24.60;;;7.50;;
69991;SDS011;57332;51.320;-0.580;2023-07-02T01:53:27;21.20;;;6.40;;
69991;SDS011;57332;51.320;-0.580;2023-07-02T01:55:54;21.52;;;7.43;;
69991;SDS011;57332;51.320;-0.580;2023-07-02T01:58:21;21.73;;;6.85;;
69991;SDS011;57332;51.320;-0.580;2023-07-02T02:00:49;29.13;;;7.20;;
69991;SDS011;57332;51.320;-0.580;2023-07-02T02:03:16;22.83;;;7.63;;
69991;SDS011;57332;51.320;-0.580;2023-07-02T02:05:43;23.80;;;7.50;;
69991;SDS011;57332;51.320;-0.580;2023-07-02T02:08:10;23.38;;;6.75;;
69991;SDS011;57332;51.320;-0.580;2023-07-02T02:10:37;21.98;;;6.32;;
69991;SDS011;57332;51.320;-0.580;2023-07-02T02:13:04;24.40;;;7.70;;
69991;SDS011;57332;51.320;-0.580;2023-07-02T02:15:30;20.25;;;7.03;;
69991;SDS011;57332;51.320;-0.580;2023-07-02T02:17:57;23.15;;;6.93;;
69991;SDS011;57332;51.320;-0.580;2023-07-02T02:20:24;20.55;;;6.25;;
69991;SDS011;57332;51.320;-0.580;2023-07-02T02:22:51;24.20;;;6.28;;
69991;SDS011;57332;51.320;-0.580;2023-07-02T02:25:18;26.35;;;7.95;;
69991;SDS011;57332;51.320;-0.580;2023-07-02T02:27:45;23.08;;;6.68;;
69991;SDS011;57332;51.320;-0.580;2023-07-02T02:30:12;21.30;;;6.72;;
69991;SDS011;57332;51.320;-0.580;2023-07-02T02:32:39;20.15;;;6.32;;
69991;SDS011;57332;51.320;-0.580;2023-07-02T02:35:07;18.35;;;6.25;;
69991;SDS011;57332;51.320;-0.580;2023-07-02T02:37:35;17.55;;;6.22;;
69991;SDS011;57332;51.320;-0.580;2023-07-02T02:40:02;17.75;;;6.30;;
69991;SDS011;57332;51.320;-0.580;2023-07-02T02:42:29;18.83;;;6.57;;
69991;SDS011;57332;51.320;-0.580;2023-07-02T02:44:56;18.70;;;6.38;;
69991;SDS011;57332;51.320;-0.580;2023-07-02T02:47:23;16.35;;;5.90;;
69991;SDS011;57332;51.320;-0.580;2023-07-02T02:49:50;17.08;;;5.85;;
69991;SDS011;57332;51.320;-0.580;2023-07-02T02:52:16;19.08;;;5.78;;
69991;SDS011;57332;51.320;-0.580;2023-07-02T02:54:45;14.30;;;5.20;;
69991;SDS011;57332;51.320;-0.580;2023-07-02T02:57:12;20.38;;;6.30;;
69991;SDS011;57332;51.320;-0.580;2023-07-02T02:59:40;21.05;;;6.90;;
69991;SDS011;57332;51.320;-0.580;2023-07-02T03:02:07;17.77;;;5.60;;
69991;SDS011;57332;51.320;-0.580;2023-07-02T03:04:34;23.05;;;6.63;;
69991;SDS011;57332;51.320;-0.580;2023-07-02T03:07:01;19.20;;;7.22;;
69991;SDS011;57332;51.320;-0.580;2023-07-02T03:09:28;15.73;;;6.03;;
69991;SDS011;57332;51.320;-0.580;2023-07-02T03:11:55;17.67;;;6.32;;
69991;SDS011;57332;51.320;-0.580;2023-07-02T03:14:22;15.68;;;5.80;;
69991;SDS011;57332;51.320;-0.580;2023-07-02T03:16:49;22.10;;;6.13;;
69991;SDS011;57332;51.320;-0.580;2023-07-02T03:19:16;17.48;;;6.22;;
69991;SDS011;57332;51.320;-0.580;2023-07-02T03:21:43;17.25;;;5.72;;
69991;SDS011;57332;51.320;-0.580;2023-07-02T03:24:10;17.55;;;5.68;;
69991;SDS011;57332;51.320;-0.580;2023-07-02T03:26:40;17.67;;;5.57;;
69991;SDS011;57332;51.320;-0.580;2023-07-02T03:29:07;18.08;;;6.03;;
69991;SDS011;57332;51.320;-0.580;2023-07-02T03:31:34;21.23;;;7.07;;
69991;SDS011;57332;51.320;-0.580;2023-07-02T03:34:02;22.05;;;6.45;;
69991;SDS011;57332;51.320;-0.580;2023-07-02T03:36:29;17.25;;;5.93;;
69991;SDS011;57332;51.320;-0.580;2023-07-02T03:38:56;16.38;;;5.45;;
69991;SDS011;57332;51.320;-0.580;2023-07-02T03:41:23;16.67;;;6.07;;
69991;SDS011;57332;51.320;-0.580;2023-07-02T03:43:50;22.10;;;6.47;;
69991;SDS011;57332;51.320;-0.580;2023-07-02T03:46:17;21.55;;;6.75;;
69991;SDS011;57332;51.320;-0.580;2023-07-02T03:48:44;20.92;;;5.93;;
69991;SDS011;57332;51.320;-0.580;2023-07-02T03:51:11;19.77;;;5.93;;
69991;SDS011;57332;51.320;-0.580;2023-07-02T03:53:41;14.50;;;5.60;;
69991;SDS011;57332;51.320;-0.580;2023-07-02T03:56:08;21.00;;;5.97;;
69991;SDS011;57332;51.320;-0.580;2023-07-02T03:58:35;19.10;;;5.60;;
69991;SDS011;57332;51.320;-0.580;2023-07-02T04:01:02;20.77;;;6.18;;
69991;SDS011;57332;51.320;-0.580;2023-07-02T04:03:28;15.88;;;5.03;;
69991;SDS011;57332;51.320;-0.580;2023-07-02T04:05:55;18.80;;;6.55;;
69991;SDS011;57332;51.320;-0.580;2023-07-02T04:08:22;21.38;;;5.82;;
69991;SDS011;57332;51.320;-0.580;2023-07-02T04:10:51;18.00;;;5.22;;
69991;SDS011;57332;51.320;-0.580;2023-07-02T04:13:18;15.20;;;5.80;;
69991;SDS011;57332;51.320;-0.580;2023-07-02T04:15:45;19.40;;;6.25;;
69991;SDS011;57332;51.320;-0.580;2023-07-02T04:18:12;21.33;;;6.30;;
69991;SDS011;57332;51.320;-0.580;2023-07-02T04:20:39;17.27;;;6.10;;
69991;SDS011;57332;51.320;-0.580;2023-07-02T04:23:06;16.38;;;6.35;;
69991;SDS011;57332;51.320;-0.580;2023-07-02T04:25:33;21.75;;;5.78;;
69991;SDS011;57332;51.320;-0.580;2023-07-02T04:28:20;16.42;;;5.57;;
69991;SDS011;57332;51.320;-0.580;2023-07-02T04:30:47;21.15;;;6.63;;
69991;SDS011;57332;51.320;-0.580;2023-07-02T04:33:17;22.25;;;5.90;;
69991;SDS011;57332;51.320;-0.580;2023-07-02T04:35:44;20.20;;;5.78;;
69991;SDS011;57332;51.320;-0.580;2023-07-02T04:38:11;19.95;;;5.85;;
69991;SDS011;57332;51.320;-0.580;2023-07-02T04:40:39;16.88;;;6.00;;
69991;SDS011;57332;51.320;-0.580;2023-07-02T04:43:06;19.77;;;5.47;;
69991;SDS011;57332;51.320;-0.580;2023-07-02T04:45:33;17.15;;;5.40;;
69991;SDS011;57332;51.320;-0.580;2023-07-02T04:48:03;19.30;;;6.00;;
69991;SDS011;57332;51.320;-0.580;2023-07-02T04:50:30;22.90;;;6.25;;
69991;SDS011;57332;51.320;-0.580;2023-07-02T04:52:57;21.00;;;5.57;;
69991;SDS011;57332;51.320;-0.580;2023-07-02T04:55:24;18.90;;;5.78;;
69991;SDS011;57332;51.320;-0.580;2023-07-02T04:57:51;16.42;;;5.50;;
69991;SDS011;57332;51.320;-0.580;2023-07-02T05:00:18;20.08;;;5.97;;
69991;SDS011;57332;51.320;-0.580;2023-07-02T05:02:45;20.10;;;6.20;;
69991;SDS011;57332;51.320;-0.580;2023-07-02T05:05:12;18.50;;;5.82;;
69991;SDS011;57332;51.320;-0.580;2023-07-02T05:07:40;16.25;;;5.50;;
69991;SDS011;57332;51.320;-0.580;2023-07-02T05:10:07;18.63;;;5.82;;
69991;SDS011;57332;51.320;-0.580;2023-07-02T05:12:34;17.23;;;5.93;;
69991;SDS011;57332;51.320;-0.580;2023-07-02T05:15:01;18.08;;;6.20;;
69991;SDS011;57332;51.320;-0.580;2023-07-02T05:17:28;20.00;;;5.78;;
69991;SDS011;57332;51.320;-0.580;2023-07-02T05:19:55;22.42;;;5.90;;
69991;SDS011;57332;51.320;-0.580;2023-07-02T05:22:21;17.48;;;5.00;;
69991;SDS011;57332;51.320;-0.580;2023-07-02T05:24:48;17.38;;;5.22;;
69991;SDS011;57332;51.320;-0.580;2023-07-02T05:27:15;17.40;;;5.15;;
69991;SDS011;57332;51.320;-0.580;2023-07-02T05:29:43;18.98;;;6.38;;
69991;SDS011;57332;51.320;-0.580;2023-07-02T05:32:10;21.45;;;5.60;;
69991;SDS011;57332;51.320;-0.580;2023-07-02T05:34:37;19.63;;;5.50;;
69991;SDS011;57332;51.320;-0.580;2023-07-02T05:37:04;21.55;;;5.65;;
69991;SDS011;57332;51.320;-0.580;2023-07-02T05:39:31;14.23;;;4.68;;
69991;SDS011;57332;51.320;-0.580;2023-07-02T05:41:57;15.75;;;4.97;;
69991;SDS011;57332;51.320;-0.580;2023-07-02T05:44:24;18.67;;;5.30;;
69991;SDS011;57332;51.320;-0.580;2023-07-02T05:46:51;19.58;;;5.80;;
69991;SDS011;57332;51.320;-0.580;2023-07-02T05:49:18;15.77;;;5.13;;
69991;SDS011;57332;51.320;-0.580;2023-07-02T05:51:45;16.88;;;5.05;;
69991;SDS011;57332;51.320;-0.580;2023-07-02T05:54:12;19.33;;;5.10;;
69991;SDS011;57332;51.320;-0.580;2023-07-02T05:56:39;13.63;;;5.68;;
69991;SDS011;57332;51.320;-0.580;2023-07-02T05:59:06;13.95;;;4.88;;
69991;SDS011;57332;51.320;-0.580;2023-07-02T06:01:33;12.82;;;4.82;;
69991;SDS011;57332;51.320;-0.580;2023-07-02T06:04:00;14.80;;;4.82;;
69991;SDS011;57332;51.320;-0.580;2023-07-02T06:06:27;14.88;;;4.80;;
69991;SDS011;57332;51.320;-0.580;2023-07-02T06:08:54;15.48;;;5.05;;
69991;SDS011;57332;51.320;-0.580;2023-07-02T06:11:21;16.55;;;4.97;;
69991;SDS011;57332;51.320;-0.580;2023-07-02T06:13:48;15.55;;;5.15;;
69991;SDS011;57332;51.320;-0.580;2023-07-02T06:16:15;13.98;;;4.80;;
69991;SDS011;57332;51.320;-0.580;2023-07-02T06:18:41;13.60;;;4.63;;
69991;SDS011;57332;51.320;-0.580;2023-07-02T06:21:09;14.63;;;4.45;;
69991;SDS011;57332;51.320;-0.580;2023-07-02T06:23:39;11.85;;;4.28;;
69991;SDS011;57332;51.320;-0.580;2023-07-02T06:26:06;17.20;;;4.22;;
69991;SDS011;57332;51.320;-0.580;2023-07-02T06:28:33;15.43;;;4.25;;
69991;SDS011;57332;51.320;-0.580;2023-07-02T06:31:00;13.68;;;4.35;;
69991;SDS011;57332;51.320;-0.580;2023-07-02T06:33:27;14.10;;;5.35;;
69991;SDS011;57332;51.320;-0.580;2023-07-02T06:35:54;12.63;;;3.75;;
69991;SDS011;57332;51.320;-0.580;2023-07-02T06:38:21;9.30;;;3.80;;
69991;SDS011;57332;51.320;-0.580;2023-07-02T06:40:48;13.30;;;4.38;;
69991;SDS011;57332;51.320;-0.580;2023-07-02T06:43:16;13.85;;;3.67;;
69991;SDS011;57332;51.320;-0.580;2023-07-02T06:45:43;13.20;;;4.05;;
69991;SDS011;57332;51.320;-0.580;2023-07-02T06:48:10;12.52;;;4.55;;
69991;SDS011;57332;51.320;-0.580;2023-07-02T06:50:37;11.75;;;3.88;;
69991;SDS011;57332;51.320;-0.580;2023-07-02T06:53:04;14.52;;;4.07;;
69991;SDS011;57332;51.320;-0.580;2023-07-02T06:55:31;9.27;;;3.50;;
69991;SDS011;57332;51.320;-0.580;2023-07-02T06:57:58;11.82;;;3.65;;
69991;SDS011;57332;51.320;-0.580;2023-07-02T07:00:25;9.10;;;3.63;;
69991;SDS011;57332;51.320;-0.580;2023-07-02T07:02:52;13.75;;;3.75;;
69991;SDS011;57332;51.320;-0.580;2023-07-02T07:05:19;9.73;;;3.33;;
69991;SDS011;57332;51.320;-0.580;2023-07-02T07:07:45;12.98;;;3.78;;
69991;SDS011;57332;51.320;-0.580;2023-07-02T07:10:12;13.10;;;3.83;;
69991;SDS011;57332;51.320;-0.580;2023-07-02T07:12:39;10.48;;;3.03;;
69991;SDS011;57332;51.320;-0.580;2023-07-02T07:15:06;9.77;;;3.00;;
69991;SDS011;57332;51.320;-0.580;2023-07-02T07:17:33;11.25;;;3.30;;
69991;SDS011;57332;51.320;-0.580;2023-07-02T07:20:00;10.13;;;3.10;;
69991;SDS011;57332;51.320;-0.580;2023-07-02T07:22:31;12.20;;;3.75;;
69991;SDS011;57332;51.320;-0.580;2023-07-02T07:24:58;7.97;;;2.83;;
69991;SDS011;57332;51.320;-0.580;2023-07-02T07:27:25;10.15;;;3.40;;
69991;SDS011;57332;51.320;-0.580;2023-07-02T07:29:52;14.65;;;3.42;;
69991;SDS011;57332;51.320;-0.580;2023-07-02T07:32:20;9.00;;;3.30;;
69991;SDS011;57332;51.320;-0.580;2023-07-02T07:34:47;11.50;;;3.33;;
69991;SDS011;57332;51.320;-0.580;2023-07-02T07:37:14;7.45;;;2.92;;
69991;SDS011;57332;51.320;-0.580;2023-07-02T07:39:40;10.45;;;2.90;;
69991;SDS011;57332;51.320;-0.580;2023-07-02T07:42:07;9.73;;;3.40;;
69991;SDS011;57332;51.320;-0.580;2023-07-02T07:44:34;9.75;;;3.40;;
69991;SDS011;57332;51.320;-0.580;2023-07-02T07:47:01;8.25;;;3.13;;
69991;SDS011;57332;51.320;-0.580;2023-07-02T07:49:28;10.50;;;3.63;;
69991;SDS011;57332;51.320;-0.580;2023-07-02T07:51:55;8.85;;;3.08;;
69991;SDS011;57332;51.320;-0.580;2023-07-02T07:54:22;9.05;;;3.10;;
69991;SDS011;57332;51.320;-0.580;2023-07-02T07:56:49;9.77;;;3.00;;
69991;SDS011;57332;51.320;-0.580;2023-07-02T07:59:16;9.52;;;2.80;;
69991;SDS011;57332;51.320;-0.580;2023-07-02T08:01:43;7.22;;;2.75;;
69991;SDS011;57332;51.320;-0.580;2023-07-02T08:04:10;8.57;;;2.95;;
69991;SDS011;57332;51.320;-0.580;2023-07-02T08:06:37;9.75;;;2.70;;
69991;SDS011;57332;51.320;-0.580;2023-07-02T08:09:04;7.82;;;2.92;;
69991;SDS011;57332;51.320;-0.580;2023-07-02T08:11:31;10.05;;;3.13;;
69991;SDS011;57332;51.320;-0.580;2023-07-02T08:13:58;7.95;;;3.20;;
69991;SDS011;57332;51.320;-0.580;2023-07-02T08:16:25;6.53;;;3.25;;
69991;SDS011;57332;51.320;-0.580;2023-07-02T08:18:52;8.68;;;2.38;;
69991;SDS011;57332;51.320;-0.580;2023-07-02T08:21:19;11.13;;;3.20;;
69991;SDS011;57332;51.320;-0.580;2023-07-02T08:23:46;8.05;;;3.10;;
69991;SDS011;57332;51.320;-0.580;2023-07-02T08:26:13;7.35;;;2.83;;
69991;SDS011;57332;51.320;-0.580;2023-07-02T08:28:41;10.88;;;3.35;;
69991;SDS011;57332;51.320;-0.580;2023-07-02T08:31:08;8.82;;;3.10;;
69991;SDS011;57332;51.320;-0.580;2023-07-02T08:33:35;12.23;;;3.00;;
69991;SDS011;57332;51.320;-0.580;2023-07-02T08:36:02;6.93;;;2.92;;
69991;SDS011;57332;51.320;-0.580;2023-07-02T08:38:29;9.25;;;2.90;;
69991;SDS011;57332;51.320;-0.580;2023-07-02T08:40:56;9.57;;;2.88;;
69991;SDS011;57332;51.320;-0.580;2023-07-02T08:43:23;11.98;;;2.88;;
69991;SDS011;57332;51.320;-0.580;2023-07-02T08:45:52;8.52;;;2.70;;
69991;SDS011;57332;51.320;-0.580;2023-07-02T08:48:20;8.38;;;2.80;;
69991;SDS011;57332;51.320;-0.580;2023-07-02T08:50:51;10.73;;;2.90;;
69991;SDS011;57332;51.320;-0.580;2023-07-02T08:53:18;6.88;;;2.70;;
69991;SDS011;57332;51.320;-0.580;2023-07-02T08:55:45;6.50;;;2.08;;
69991;SDS011;57332;51.320;-0.580;2023-07-02T08:58:12;7.00;;;2.55;;
69991;SDS011;57332;51.320;-0.580;2023-07-02T09:00:40;9.27;;;2.60;;
69991;SDS011;57332;51.320;-0.580;2023-07-02T09:03:14;7.22;;;2.67;;
69991;SDS011;57332;51.320;-0.580;2023-07-02T09:05:51;7.75;;;2.72;;
69991;SDS011;57332;51.320;-0.580;2023-07-02T09:08:27;9.68;;;2.90;;
69991;SDS011;57332;51.320;-0.580;2023-07-02T09:10:54;9.32;;;2.90;;
69991;SDS011;57332;51.320;-0.580;2023-07-02T09:13:21;8.57;;;2.38;;
69991;SDS011;57332;51.320;-0.580;2023-07-02T09:15:48;8.82;;;3.15;;
69991;SDS011;57332;51.320;-0.580;2023-07-02T09:20:42;6.97;;;2.60;;
69991;SDS011;57332;51.320;-0.580;2023-07-02T09:23:09;8.02;;;2.67;;
69991;SDS011;57332;51.320;-0.580;2023-07-02T09:25:37;6.63;;;2.85;;
69991;SDS011;57332;51.320;-0.580;2023-07-02T09:28:14;8.52;;;2.58;;
69991;SDS011;57332;51.320;-0.580;2023-07-02T09:30:55;9.25;;;2.78;;
69991;SDS011;57332;51.320;-0.580;2023-07-02T09:33:25;6.03;;;2.47;;
69991;SDS011;57332;51.320;-0.580;2023-07-02T09:35:53;8.25;;;2.65;;
69991;SDS011;57332;51.320;-0.580;2023-07-02T09:38:20;7.97;;;2.15;;
69991;SDS011;57332;51.320;-0.580;2023-07-02T09:40:49;6.70;;;2.42;;
69991;SDS011;57332;51.320;-0.580;2023-07-02T09:43:17;7.28;;;2.33;;
69991;SDS011;57332;51.320;-0.580;2023-07-02T09:45:46;7.43;;;2.42;;
69991;SDS011;57332;51.320;-0.580;2023-07-02T09:48:13;6.07;;;2.25;;
69991;SDS011;57332;51.320;-0.580;2023-07-02T09:50:42;7.82;;;2.58;;
69991;SDS011;57332;51.320;-0.580;2023-07-02T09:53:10;5.38;;;2.20;;
69991;SDS011;57332;51.320;-0.580;2023-07-02T09:55:43;7.22;;;2.40;;
69991;SDS011;57332;51.320;-0.580;2023-07-02T09:58:10;8.32;;;2.45;;
69991;SDS011;57332;51.320;-0.580;2023-07-02T10:00:41;8.50;;;2.50;;
69991;SDS011;57332;51.320;-0.580;2023-07-02T10:03:08;7.28;;;2.40;;
69991;SDS011;57332;51.320;-0.580;2023-07-02T10:05:35;7.15;;;2.70;;
69991;SDS011;57332;51.320;-0.580;2023-07-02T10:08:15;8.77;;;2.20;;
69991;SDS011;57332;51.320;-0.580;2023-07-02T10:10:48;4.90;;;2.05;;
69991;SDS011;57332;51.320;-0.580;2023-07-02T10:13:26;6.40;;;2.38;;
69991;SDS011;57332;51.320;-0.580;2023-07-02T10:16:00;5.30;;;2.00;;
69991;SDS011;57332;51.320;-0.580;2023-07-02T10:18:27;6.20;;;2.10;;
69991;SDS011;57332;51.320;-0.580;2023-07-02T10:20:54;5.72;;;2.08;;
69991;SDS011;57332;51.320;-0.580;2023-07-02T10:23:22;8.15;;;2.38;;
69991;SDS011;57332;51.320;-0.580;2023-07-02T10:25:58;5.90;;;1.80;;
69991;SDS011;57332;51.320;-0.580;2023-07-02T10:28:36;6.38;;;2.33;;
69991;SDS011;57332;51.320;-0.580;2023-07-02T10:31:02;6.55;;;2.03;;
69991;SDS011;57332;51.320;-0.580;2023-07-02T10:33:29;7.25;;;1.80;;
69991;SDS011;57332;51.320;-0.580;2023-07-02T10:35:56;4.70;;;1.73;;
69991;SDS011;57332;51.320;-0.580;2023-07-02T10:38:24;5.25;;;2.17;;
69991;SDS011;57332;51.320;-0.580;2023-07-02T10:40:55;5.35;;;1.73;;
69991;SDS011;57332;51.320;-0.580;2023-07-02T10:45:56;6.10;;;2.28;;
69991;SDS011;57332;51.320;-0.580;2023-07-02T10:48:23;6.88;;;2.10;;
69991;SDS011;57332;51.320;-0.580;2023-07-02T10:50:50;7.65;;;2.28;;
69991;SDS011;57332;51.320;-0.580;2023-07-02T10:53:18;7.68;;;2.13;;
69991;SDS011;57332;51.320;-0.580;2023-07-02T10:55:54;5.43;;;2.13;;
69991;SDS011;57332;51.320;-0.580;2023-07-02T10:58:23;6.93;;;2.30;;
69991;SDS011;57332;51.320;-0.580;2023-07-02T11:00:51;5.63;;;2.25;;
69991;SDS011;57332;51.320;-0.580;2023-07-02T11:03:27;5.95;;;1.92;;
69991;SDS011;57332;51.320;-0.580;2023-07-02T11:05:54;7.97;;;2.20;;
69991;SDS011;57332;51.320;-0.580;2023-07-02T11:08:22;4.65;;;1.85;;
69991;SDS011;57332;51.320;-0.580;2023-07-02T11:10:50;5.43;;;1.70;;
69991;SDS011;57332;51.320;-0.580;2023-07-02T11:13:18;7.70;;;2.00;;
69991;SDS011;57332;51.320;-0.580;2023-07-02T11:15:45;6.20;;;2.03;;
69991;SDS011;57332;51.320;-0.580;2023-07-02T11:18:14;5.90;;;1.70;;
69991;SDS011;57332;51.320;-0.580;2023-07-02T11:20:43;7.10;;;1.90;;
69991;SDS011;57332;51.320;-0.580;2023-07-02T11:23:19;7.22;;;1.80;;
69991;SDS011;57332;51.320;-0.580;2023-07-02T11:25:58;5.43;;;1.83;;
69991;SDS011;57332;51.320;-0.580;2023-07-02T11:28:25;9.05;;;2.60;;
69991;SDS011;57332;51.320;-0.580;2023-07-02T11:30:52;5.70;;;1.60;;
69991;SDS011;57332;51.320;-0.580;2023-07-02T11:36:20;6.30;;;1.73;;
69991;SDS011;57332;51.320;-0.580;2023-07-02T11:38:47;3.97;;;1.63;;
69991;SDS011;57332;51.320;-0.580;2023-07-02T11:41:14;6.53;;;1.63;;
69991;SDS011;57332;51.320;-0.580;2023-07-02T11:43:41;3.92;;;1.70;;
69991;SDS011;57332;51.320;-0.580;2023-07-02T11:46:08;5.00;;;1.60;;
69991;SDS011;57332;51.320;-0.580;2023-07-02T11:48:34;6.82;;;1.90;;
69991;SDS011;57332;51.320;-0.580;2023-07-02T11:51:01;6.95;;;1.85;;
69991;SDS011;57332;51.320;-0.580;2023-07-02T11:53:28;6.40;;;1.80;;
69991;SDS011;57332;51.320;-0.580;2023-07-02T11:55:55;6.72;;;2.10;;
69991;SDS011;57332;51.320;-0.580;2023-07-02T11:58:22;3.15;;;1.55;;
69991;SDS011;57332;51.320;-0.580;2023-07-02T12:00:49;5.93;;;2.33;;
69991;SDS011;57332;51.320;-0.580;2023-07-02T12:03:16;5.32;;;1.83;;
69991;SDS011;57332;51.320;-0.580;2023-07-02T12:05:43;7.47;;;2.15;;
69991;SDS011;57332;51.320;-0.580;2023-07-02T12:08:10;7.10;;;2.22;;
69991;SDS011;57332;51.320;-0.580;2023-07-02T12:10:37;6.55;;;2.60;;
69991;SDS011;57332;51.320;-0.580;2023-07-02T12:13:04;5.47;;;2.47;;
69991;SDS011;57332;51.320;-0.580;2023-07-02T12:15:31;6.90;;;2.40;;
69991;SDS011;57332;51.320;-0.580;2023-07-02T12:17:58;8.80;;;2.40;;
69991;SDS011;57332;51.320;-0.580;2023-07-02T12:20:25;7.75;;;2.25;;
69991;SDS011;57332;51.320;-0.580;2023-07-02T12:22:52;7.65;;;2.35;;
69991;SDS011;57332;51.320;-0.580;2023-07-02T12:25:19;6.22;;;2.00;;
69991;SDS011;57332;51.320;-0.580;2023-07-02T12:27:46;7.32;;;2.20;;
69991;SDS011;57332;51.320;-0.580;2023-07-02T12:30:13;4.57;;;1.90;;
69991;SDS011;57332;51.320;-0.580;2023-07-02T12:32:44;5.85;;;1.77;;
69991;SDS011;57332;51.320;-0.580;2023-07-02T12:35:11;6.53;;;2.50;;
69991;SDS011;57332;51.320;-0.580;2023-07-02T12:37:44;6.20;;;2.30;;
69991;SDS011;57332;51.320;-0.580;2023-07-02T12:40:12;5.88;;;1.98;;
69991;SDS011;57332;51.320;-0.580;2023-07-02T12:42:40;9.05;;;2.22;;
69991;SDS011;57332;51.320;-0.580;2023-07-02T12:45:08;7.60;;;1.88;;
69991;SDS011;57332;51.320;-0.580;2023-07-02T12:47:35;8.10;;;2.53;;
69991;SDS011;57332;51.320;-0.580;2023-07-02T12:50:02;6.88;;;2.20;;
69991;SDS011;57332;51.320;-0.580;2023-07-02T12:52:29;6.28;;;2.47;;
69991;SDS011;57332;51.320;-0.580;2023-07-02T12:54:56;8.15;;;2.25;;
69991;SDS011;57332;51.320;-0.580;2023-07-02T12:57:23;8.73;;;2.83;;
69991;SDS011;57332;51.320;-0.580;2023-07-02T12:59:50;4.70;;;2.20;;
69991;SDS011;57332;51.320;-0.580;2023-07-02T13:02:17;6.03;;;2.13;;
69991;SDS011;57332;51.320;-0.580;2023-07-02T13:04:44;6.97;;;2.03;;
69991;SDS011;57332;51.320;-0.580;2023-07-02T13:07:11;7.93;;;2.28;;
69991;SDS011;57332;51.320;-0.580;2023-07-02T13:09:38;5.95;;;1.80;;
69991;SDS011;57332;51.320;-0.580;2023-07-02T13:12:07;9.60;;;2.60;;
69991;SDS011;57332;51.320;-0.580;2023-07-02T13:14:34;6.95;;;1.98;;
69991;SDS011;57332;51.320;-0.580;2023-07-02T13:17:01;9.50;;;2.53;;
69991;SDS011;57332;51.320;-0.580;2023-07-02T13:19:31;6.78;;;2.03;;
69991;SDS011;57332;51.320;-0.580;2023-07-02T13:21:59;9.15;;;2.17;;
69991;SDS011;57332;51.320;-0.580;2023-07-02T13:24:27;6.50;;;1.98;;
69991;SDS011;57332;51.320;-0.580;2023-07-02T13:26:54;7.65;;;1.83;;
69991;SDS011;57332;51.320;-0.580;2023-07-02T13:29:21;7.50;;;1.52;;
69991;SDS011;57332;51.320;-0.580;2023-07-02T13:31:48;6.40;;;2.00;;
69991;SDS011;57332;51.320;-0.580;2023-07-02T13:34:15;6.68;;;1.90;;
69991;SDS011;57332;51.320;-0.580;2023-07-02T13:36:42;7.57;;;1.70;;
69991;SDS011;57332;51.320;-0.580;2023-07-02T13:39:09;6.03;;;1.52;;
69991;SDS011;57332;51.320;-0.580;2023-07-02T13:41:36;8.40;;;2.88;;
69991;SDS011;57332;51.320;-0.580;2023-07-02T13:44:03;10.43;;;2.38;;
69991;SDS011;57332;51.320;-0.580;2023-07-02T13:46:30;4.97;;;1.60;;
69991;SDS011;57332;51.320;-0.580;2023-07-02T13:48:57;5.22;;;1.67;;
69991;SDS011;57332;51.320;-0.580;2023-07-02T13:51:24;6.05;;;1.70;;
69991;SDS011;57332;51.320;-0.580;2023-07-02T13:53:51;5.20;;;1.45;;
69991;SDS011;57332;51.320;-0.580;2023-07-02T13:56:18;7.22;;;1.75;;
69991;SDS011;57332;51.320;-0.580;2023-07-02T13:58:46;7.05;;;1.85;;
69991;SDS011;57332;51.320;-0.580;2023-07-02T14:01:14;5.68;;;1.50;;
69991;SDS011;57332;51.320;-0.580;2023-07-02T14:03:41;7.50;;;1.90;;
69991;SDS011;57332;51.320;-0.580;2023-07-02T14:06:08;7.10;;;1.90;;
69991;SDS011;57332;51.320;-0.580;2023-07-02T14:08:35;6.15;;;1.55;;
69991;SDS011;57332;51.320;-0.580;2023-07-02T14:11:03;8.85;;;1.80;;
69991;SDS011;57332;51.320;-0.580;2023-07-02T14:13:30;5.13;;;1.52;;
69991;SDS011;57332;51.320;-0.580;2023-07-02T14:15:57;6.68;;;1.85;;
69991;SDS011;57332;51.320;-0.580;2023-07-02T14:18:24;4.93;;;1.80;;
69991;SDS011;57332;51.320;-0.580;2023-07-02T14:20:51;7.43;;;1.50;;
69991;SDS011;57332;51.320;-0.580;2023-07-02T14:23:18;5.53;;;1.98;;
69991;SDS011;57332;51.320;-0.580;2023-07-02T14:25:45;5.90;;;1.73;;
69991;SDS011;57332;51.320;-0.580;2023-07-02T14:28:12;5.60;;;1.70;;
69991;SDS011;57332;51.320;-0.580;2023-07-02T14:30:39;5.22;;;1.40;;
69991;SDS011;57332;51.320;-0.580;2023-07-02T14:33:06;6.18;;;1.85;;
69991;SDS011;57332;51.320;-0.580;2023-07-02T14:35:33;6.38;;;1.60;;
69991;SDS011;57332;51.320;-0.580;2023-07-02T14:37:59;5.50;;;1.30;;
69991;SDS011;57332;51.320;-0.580;2023-07-02T14:40:26;5.45;;;1.42;;
69991;SDS011;57332;51.320;-0.580;2023-07-02T14:42:53;6.43;;;1.73;;
69991;SDS011;57332;51.320;-0.580;2023-07-02T14:45:20;5.15;;;1.00;;
69991;SDS011;57332;51.320;-0.580;2023-07-02T14:47:47;5.32;;;1.38;;